sensor_id;sensor_type;location;lat;lon;timestamp;pressure;altitude;pressure_sealevel;temperature;humidity
74635;BME280;63140;56.306;43.984;2022-09-17T00:02:02;97511.00;;;13.47;81.56
74635;BME280;63140;56.306;43.984;2022-09-17T00:04:28;97507.19;;;13.48;81.71
74635;BME280;63140;56.306;43.984;2022-09-17T00:06:54;97508.66;;;13.49;81.68
74635;BME280;63140;56.306;43.984;2022-09-17T00:09:20;97512.22;;;13.46;81.86
74635;BME280;63140;56.306;43.984;2022-09-17T00:11:45;97507.34;;;13.45;81.89
74635;BME280;63140;56.306;43.984;2022-09-17T00:14:14;97505.09;;;13.43;82.05
74635;BME280;63140;56.306;43.984;2022-09-17T00:16:43;97520.53;;;13.39;82.55
74635;BME280;63140;56.306;43.984;2022-09-17T00:19:19;97511.06;;;13.38;82.77
74635;BME280;63140;56.306;43.984;2022-09-17T00:21:45;97509.88;;;13.39;82.48
74635;BME280;63140;56.306;43.984;2022-09-17T00:24:13;97502.16;;;13.41;82.56
74635;BME280;63140;56.306;43.984;2022-09-17T00:26:39;97498.47;;;13.39;82.95
74635;BME280;63140;56.306;43.984;2022-09-17T00:29:05;97507.50;;;13.41;82.50
74635;BME280;63140;56.306;43.984;2022-09-17T00:31:31;97511.34;;;13.40;82.51
74635;BME280;63140;56.306;43.984;2022-09-17T00:33:58;97508.97;;;13.42;82.72
74635;BME280;63140;56.306;43.984;2022-09-17T00:36:25;97494.91;;;13.42;82.90
74635;BME280;63140;56.306;43.984;2022-09-17T00:38:53;97513.41;;;13.45;83.04
74635;BME280;63140;56.306;43.984;2022-09-17T00:41:21;97479.91;;;13.44;83.33
74635;BME280;63140;56.306;43.984;2022-09-17T00:43:49;97487.47;;;13.46;83.37
74635;BME280;63140;56.306;43.984;2022-09-17T00:46:34;97493.84;;;13.48;83.34
74635;BME280;63140;56.306;43.984;2022-09-17T00:49:22;97486.41;;;13.52;83.29
74635;BME280;63140;56.306;43.984;2022-09-17T00:52:11;97479.63;;;13.51;83.29
74635;BME280;63140;56.306;43.984;2022-09-17T00:54:41;97487.16;;;13.53;83.08
74635;BME280;63140;56.306;43.984;2022-09-17T00:57:10;97490.28;;;13.51;83.72
74635;BME280;63140;56.306;43.984;2022-09-17T00:59:36;97497.66;;;13.56;83.60
74635;BME280;63140;56.306;43.984;2022-09-17T01:02:03;97488.75;;;13.59;83.59
74635;BME280;63140;56.306;43.984;2022-09-17T01:04:29;97490.53;;;13.63;83.60
74635;BME280;63140;56.306;43.984;2022-09-17T01:09:46;97483.53;;;13.65;83.71
74635;BME280;63140;56.306;43.984;2022-09-17T01:15:05;97482.63;;;13.68;83.97
74635;BME280;63140;56.306;43.984;2022-09-17T01:17:55;97483.97;;;13.73;83.85
74635;BME280;63140;56.306;43.984;2022-09-17T01:37:20;97482.66;;;13.92;83.65
74635;BME280;63140;56.306;43.984;2022-09-17T01:39:57;97477.63;;;13.94;83.58
74635;BME280;63140;56.306;43.984;2022-09-17T01:48:15;97477.28;;;14.01;83.59
74635;BME280;63140;56.306;43.984;2022-09-17T01:53:16;97480.06;;;14.07;83.49
74635;BME280;63140;56.306;43.984;2022-09-17T01:55:45;97480.06;;;14.07;83.54
74635;BME280;63140;56.306;43.984;2022-09-17T01:58:18;97474.72;;;14.07;83.73
74635;BME280;63140;56.306;43.984;2022-09-17T02:00:51;97479.63;;;14.08;83.60
74635;BME280;63140;56.306;43.984;2022-09-17T02:03:53;97483.19;;;14.05;84.19
74635;BME280;63140;56.306;43.984;2022-09-17T02:06:24;97483.19;;;14.05;84.07
74635;BME280;63140;56.306;43.984;2022-09-17T02:08:55;97488.81;;;14.07;83.95
74635;BME280;63140;56.306;43.984;2022-09-17T02:11:22;97484.22;;;14.08;84.18
74635;BME280;63140;56.306;43.984;2022-09-17T02:13:58;97489.09;;;14.09;84.44
74635;BME280;63140;56.306;43.984;2022-09-17T02:16:36;97489.84;;;14.10;84.34
74635;BME280;63140;56.306;43.984;2022-09-17T02:19:08;97495.00;;;14.14;84.18
74635;BME280;63140;56.306;43.984;2022-09-17T02:24:36;97489.50;;;14.17;84.09
74635;BME280;63140;56.306;43.984;2022-09-17T02:30:04;97504.16;;;14.22;84.07
74635;BME280;63140;56.306;43.984;2022-09-17T02:32:30;97497.63;;;14.23;84.31
74635;BME280;63140;56.306;43.984;2022-09-17T02:34:57;97504.44;;;14.24;84.24
74635;BME280;63140;56.306;43.984;2022-09-17T02:37:22;97499.81;;;14.24;84.14
74635;BME280;63140;56.306;43.984;2022-09-17T02:39:48;97507.75;;;14.19;84.60
74635;BME280;63140;56.306;43.984;2022-09-17T02:42:27;97516.66;;;14.16;85.00
74635;BME280;63140;56.306;43.984;2022-09-17T02:45:23;97513.69;;;14.14;85.08
74635;BME280;63140;56.306;43.984;2022-09-17T02:59:20;97513.16;;;14.00;85.54
74635;BME280;63140;56.306;43.984;2022-09-17T03:04:21;97504.75;;;13.93;85.81
74635;BME280;63140;56.306;43.984;2022-09-17T03:06:51;97514.09;;;13.97;85.63
74635;BME280;63140;56.306;43.984;2022-09-17T03:09:18;97515.38;;;14.02;85.58
74635;BME280;63140;56.306;43.984;2022-09-17T03:11:44;97515.97;;;14.06;85.46
74635;BME280;63140;56.306;43.984;2022-09-17T03:14:09;97519.69;;;13.99;85.49
74635;BME280;63140;56.306;43.984;2022-09-17T03:16:35;97513.91;;;14.01;85.52
74635;BME280;63140;56.306;43.984;2022-09-17T03:19:01;97522.19;;;14.03;85.81
74635;BME280;63140;56.306;43.984;2022-09-17T03:21:27;97516.69;;;14.06;85.45
74635;BME280;63140;56.306;43.984;2022-09-17T03:23:53;97523.53;;;14.07;85.27
74635;BME280;63140;56.306;43.984;2022-09-17T03:26:19;97521.84;;;14.10;85.40
74635;BME280;63140;56.306;43.984;2022-09-17T03:28:44;97525.38;;;14.16;85.05
74635;BME280;63140;56.306;43.984;2022-09-17T03:31:10;97519.16;;;14.19;85.02
74635;BME280;63140;56.306;43.984;2022-09-17T03:33:36;97523.75;;;14.19;84.98
74635;BME280;63140;56.306;43.984;2022-09-17T03:36:02;97516.31;;;14.23;85.01
74635;BME280;63140;56.306;43.984;2022-09-17T03:38:28;97522.69;;;14.25;84.95
74635;BME280;63140;56.306;43.984;2022-09-17T03:41:05;97525.00;;;14.08;85.12
74635;BME280;63140;56.306;43.984;2022-09-17T03:43:34;97532.44;;;14.04;85.30
74635;BME280;63140;56.306;43.984;2022-09-17T03:45:59;97541.34;;;14.01;85.57
74635;BME280;63140;56.306;43.984;2022-09-17T03:48:25;97539.13;;;13.67;86.40
74635;BME280;63140;56.306;43.984;2022-09-17T03:50:51;97558.69;;;13.54;86.85
74635;BME280;63140;56.306;43.984;2022-09-17T03:53:17;97544.97;;;13.38;87.41
74635;BME280;63140;56.306;43.984;2022-09-17T03:55:43;97545.13;;;13.34;87.71
74635;BME280;63140;56.306;43.984;2022-09-17T03:58:08;97550.31;;;13.38;87.43
74635;BME280;63140;56.306;43.984;2022-09-17T04:00:34;97557.00;;;13.24;88.03
74635;BME280;63140;56.306;43.984;2022-09-17T04:03:03;97550.78;;;13.27;88.20
74635;BME280;63140;56.306;43.984;2022-09-17T04:05:29;97558.00;;;13.17;88.23
74635;BME280;63140;56.306;43.984;2022-09-17T04:07:55;97550.44;;;13.16;88.18
74635;BME280;63140;56.306;43.984;2022-09-17T04:10:21;97549.56;;;13.19;88.29
74635;BME280;63140;56.306;43.984;2022-09-17T04:12:48;97559.03;;;13.20;87.94
74635;BME280;63140;56.306;43.984;2022-09-17T04:15:14;97555.94;;;13.12;87.77
74635;BME280;63140;56.306;43.984;2022-09-17T04:17:39;97558.91;;;12.96;88.64
74635;BME280;63140;56.306;43.984;2022-09-17T04:20:06;97555.50;;;13.04;88.70
74635;BME280;63140;56.306;43.984;2022-09-17T04:22:32;97566.44;;;13.16;88.10
74635;BME280;63140;56.306;43.984;2022-09-17T04:24:58;97566.59;;;13.12;87.97
74635;BME280;63140;56.306;43.984;2022-09-17T04:27:24;97566.75;;;13.08;88.16
74635;BME280;63140;56.306;43.984;2022-09-17T04:29:50;97576.22;;;13.19;87.91
74635;BME280;63140;56.306;43.984;2022-09-17T04:32:16;97577.09;;;13.16;87.85
74635;BME280;63140;56.306;43.984;2022-09-17T04:34:42;97585.13;;;13.06;88.24
74635;BME280;63140;56.306;43.984;2022-09-17T04:37:08;97587.94;;;13.03;88.39
74635;BME280;63140;56.306;43.984;2022-09-17T04:39:33;97585.84;;;12.98;88.47
74635;BME280;63140;56.306;43.984;2022-09-17T04:42:00;97591.91;;;13.07;88.30
74635;BME280;63140;56.306;43.984;2022-09-17T04:44:26;97590.16;;;13.13;87.78
74635;BME280;63140;56.306;43.984;2022-09-17T04:46:52;97585.09;;;13.16;87.68
74635;BME280;63140;56.306;43.984;2022-09-17T04:49:17;97591.47;;;13.18;87.60
74635;BME280;63140;56.306;43.984;2022-09-17T04:51:43;97597.53;;;13.19;86.88
74635;BME280;63140;56.306;43.984;2022-09-17T04:54:09;97591.75;;;13.02;87.52
74635;BME280;63140;56.306;43.984;2022-09-17T04:56:35;97607.03;;;13.10;87.58
74635;BME280;63140;56.306;43.984;2022-09-17T04:59:00;97607.03;;;13.10;87.58
74635;BME280;63140;56.306;43.984;2022-09-17T05:01:30;97608.50;;;13.11;87.24
74635;BME280;63140;56.306;43.984;2022-09-17T05:03:56;97610.56;;;13.07;87.78
74635;BME280;63140;56.306;43.984;2022-09-17T05:06:22;97615.91;;;13.26;87.28
74635;BME280;63140;56.306;43.984;2022-09-17T05:08:48;97616.66;;;13.26;86.54
74635;BME280;63140;56.306;43.984;2022-09-17T05:11:14;97614.44;;;13.34;86.50
74635;BME280;63140;56.306;43.984;2022-09-17T05:13:39;97618.00;;;13.31;86.79
74635;BME280;63140;56.306;43.984;2022-09-17T05:16:05;97627.16;;;13.30;86.95
74635;BME280;63140;56.306;43.984;2022-09-17T05:18:31;97621.53;;;13.37;86.64
74635;BME280;63140;56.306;43.984;2022-09-17T05:20:57;97643.75;;;13.43;86.42
74635;BME280;63140;56.306;43.984;2022-09-17T05:23:23;97628.94;;;13.51;86.18
74635;BME280;63140;56.306;43.984;2022-09-17T05:25:49;97634.09;;;13.64;85.77
74635;BME280;63140;56.306;43.984;2022-09-17T05:28:15;97642.25;;;13.60;85.55
74635;BME280;63140;56.306;43.984;2022-09-17T05:30:40;97648.16;;;13.65;85.67
74635;BME280;63140;56.306;43.984;2022-09-17T05:33:07;97644.91;;;13.60;85.28
74635;BME280;63140;56.306;43.984;2022-09-17T05:35:33;97653.06;;;13.66;85.17
74635;BME280;63140;56.306;43.984;2022-09-17T05:38:02;97660.03;;;13.73;85.04
74635;BME280;63140;56.306;43.984;2022-09-17T05:40:29;97664.16;;;13.83;84.54
74635;BME280;63140;56.306;43.984;2022-09-17T05:42:59;97656.44;;;13.76;84.24
74635;BME280;63140;56.306;43.984;2022-09-17T05:45:25;97671.13;;;13.71;84.33
74635;BME280;63140;56.306;43.984;2022-09-17T05:47:59;97677.78;;;13.76;84.24
74635;BME280;63140;56.306;43.984;2022-09-17T05:50:26;97679.25;;;13.86;83.36
74635;BME280;63140;56.306;43.984;2022-09-17T05:52:52;97683.41;;;13.78;83.22
74635;BME280;63140;56.306;43.984;2022-09-17T05:55:19;97680.16;;;13.65;83.72
74635;BME280;63140;56.306;43.984;2022-09-17T05:57:50;97687.28;;;13.77;84.04
74635;BME280;63140;56.306;43.984;2022-09-17T06:00:16;97693.63;;;13.89;83.63
74635;BME280;63140;56.306;43.984;2022-09-17T06:02:43;97690.38;;;13.94;81.18
74635;BME280;63140;56.306;43.984;2022-09-17T06:05:09;97703.84;;;13.99;80.47
74635;BME280;63140;56.306;43.984;2022-09-17T06:07:53;97701.63;;;13.98;80.04
74635;BME280;63140;56.306;43.984;2022-09-17T06:10:19;97708.00;;;13.91;80.71
74635;BME280;63140;56.306;43.984;2022-09-17T06:12:45;97705.94;;;13.86;80.82
74635;BME280;63140;56.306;43.984;2022-09-17T06:15:11;97720.56;;;14.00;80.93
74635;BME280;63140;56.306;43.984;2022-09-17T06:17:39;97717.78;;;13.94;79.59
74635;BME280;63140;56.306;43.984;2022-09-17T06:20:06;97726.38;;;14.07;78.78
74635;BME280;63140;56.306;43.984;2022-09-17T06:22:32;97734.91;;;14.21;77.51
74635;BME280;63140;56.306;43.984;2022-09-17T06:24:58;97734.59;;;14.28;77.38
74635;BME280;63140;56.306;43.984;2022-09-17T06:27:32;97734.72;;;14.43;77.71
74635;BME280;63140;56.306;43.984;2022-09-17T06:29:58;97747.47;;;14.39;77.86
74635;BME280;63140;56.306;43.984;2022-09-17T06:32:25;97754.25;;;14.49;77.33
74635;BME280;63140;56.306;43.984;2022-09-17T06:34:50;97761.56;;;14.58;77.10
74635;BME280;63140;56.306;43.984;2022-09-17T06:37:17;97760.94;;;14.63;76.65
74635;BME280;63140;56.306;43.984;2022-09-17T06:39:43;97767.88;;;14.69;76.22
74635;BME280;63140;56.306;43.984;2022-09-17T06:42:12;97775.50;;;14.52;76.09
74635;BME280;63140;56.306;43.984;2022-09-17T06:44:38;97761.88;;;14.50;75.51
74635;BME280;63140;56.306;43.984;2022-09-17T06:47:05;97769.84;;;14.60;74.72
74635;BME280;63140;56.306;43.984;2022-09-17T06:49:32;97774.69;;;14.70;74.56
74635;BME280;63140;56.306;43.984;2022-09-17T06:51:58;97774.84;;;14.67;74.49
74635;BME280;63140;56.306;43.984;2022-09-17T06:54:24;97783.19;;;14.69;73.34
74635;BME280;63140;56.306;43.984;2022-09-17T06:56:49;97786.75;;;14.66;73.77
74635;BME280;63140;56.306;43.984;2022-09-17T06:59:16;97789.25;;;14.69;73.51
74635;BME280;63140;56.306;43.984;2022-09-17T07:01:43;97785.19;;;14.83;73.50
74635;BME280;63140;56.306;43.984;2022-09-17T07:04:09;97796.84;;;14.71;72.56
74635;BME280;63140;56.306;43.984;2022-09-17T07:06:35;97804.88;;;14.62;73.13
74635;BME280;63140;56.306;43.984;2022-09-17T07:09:00;97804.13;;;14.61;72.99
74635;BME280;63140;56.306;43.984;2022-09-17T07:11:29;97800.72;;;14.61;72.58
74635;BME280;63140;56.306;43.984;2022-09-17T07:13:56;97809.06;;;14.53;72.17
74635;BME280;63140;56.306;43.984;2022-09-17T07:16:22;97807.56;;;14.43;72.39
74635;BME280;63140;56.306;43.984;2022-09-17T07:18:48;97806.22;;;14.48;72.74
74635;BME280;63140;56.306;43.984;2022-09-17T07:21:14;97810.22;;;14.62;72.79
74635;BME280;63140;56.306;43.984;2022-09-17T07:23:40;97805.59;;;14.62;73.12
74635;BME280;63140;56.306;43.984;2022-09-17T07:26:11;97807.69;;;14.67;73.17
74635;BME280;63140;56.306;43.984;2022-09-17T07:28:38;97815.66;;;14.76;72.97
74635;BME280;63140;56.306;43.984;2022-09-17T07:31:05;97813.38;;;14.84;73.16
74635;BME280;63140;56.306;43.984;2022-09-17T07:33:33;97816.00;;;15.02;73.16
74635;BME280;63140;56.306;43.984;2022-09-17T07:36:01;97826.03;;;15.17;72.85
74635;BME280;63140;56.306;43.984;2022-09-17T07:38:29;97825.63;;;15.33;71.44
74635;BME280;63140;56.306;43.984;2022-09-17T07:40:59;97831.50;;;15.46;71.29
74635;BME280;63140;56.306;43.984;2022-09-17T07:43:27;97817.41;;;15.70;70.28
74635;BME280;63140;56.306;43.984;2022-09-17T07:45:56;97819.47;;;15.90;69.27
74635;BME280;63140;56.306;43.984;2022-09-17T07:48:22;97822.84;;;15.99;68.78
74635;BME280;63140;56.306;43.984;2022-09-17T07:50:51;97820.25;;;15.90;68.59
74635;BME280;63140;56.306;43.984;2022-09-17T07:53:17;97820.81;;;15.94;68.16
74635;BME280;63140;56.306;43.984;2022-09-17T07:55:53;97832.81;;;15.99;67.26
74635;BME280;63140;56.306;43.984;2022-09-17T07:58:21;97834.81;;;15.89;68.24
74635;BME280;63140;56.306;43.984;2022-09-17T08:00:47;97837.22;;;15.87;68.22
74635;BME280;63140;56.306;43.984;2022-09-17T08:03:14;97835.88;;;16.07;68.41
74635;BME280;63140;56.306;43.984;2022-09-17T08:05:40;97852.59;;;16.31;68.34
74635;BME280;63140;56.306;43.984;2022-09-17T08:08:06;97852.41;;;16.20;66.81
74635;BME280;63140;56.306;43.984;2022-09-17T08:10:31;97849.31;;;16.36;65.98
74635;BME280;63140;56.306;43.984;2022-09-17T08:12:58;97856.88;;;16.53;65.95
74635;BME280;63140;56.306;43.984;2022-09-17T08:15:24;97849.31;;;16.66;65.18
74635;BME280;63140;56.306;43.984;2022-09-17T08:17:51;97842.84;;;16.58;63.71
74635;BME280;63140;56.306;43.984;2022-09-17T08:20:17;97855.28;;;16.46;64.56
74635;BME280;63140;56.306;43.984;2022-09-17T08:22:43;97855.78;;;16.44;64.66
74635;BME280;63140;56.306;43.984;2022-09-17T08:25:10;97865.69;;;16.14;64.85
74635;BME280;63140;56.306;43.984;2022-09-17T08:27:36;97868.09;;;15.97;64.58
74635;BME280;63140;56.306;43.984;2022-09-17T08:30:06;97874.97;;;15.89;65.46
74635;BME280;63140;56.306;43.984;2022-09-17T08:32:33;97874.16;;;15.98;65.83
74635;BME280;63140;56.306;43.984;2022-09-17T08:34:59;97866.81;;;16.08;65.32
74635;BME280;63140;56.306;43.984;2022-09-17T08:37:26;97868.19;;;16.18;64.47
74635;BME280;63140;56.306;43.984;2022-09-17T08:39:54;97861.28;;;16.11;64.63
74635;BME280;63140;56.306;43.984;2022-09-17T08:42:49;97863.50;;;16.13;65.19
74635;BME280;63140;56.306;43.984;2022-09-17T08:45:16;97855.94;;;16.41;64.75
74635;BME280;63140;56.306;43.984;2022-09-17T08:47:45;97869.81;;;16.39;62.81
74635;BME280;63140;56.306;43.984;2022-09-17T08:50:30;97868.97;;;16.18;61.49
74635;BME280;63140;56.306;43.984;2022-09-17T08:56:01;97877.59;;;15.98;61.20
74635;BME280;63140;56.306;43.984;2022-09-17T09:06:50;97886.63;;;16.40;61.91
74635;BME280;63140;56.306;43.984;2022-09-17T09:09:22;97883.13;;;16.49;61.28
74635;BME280;63140;56.306;43.984;2022-09-17T09:12:01;97890.78;;;16.70;61.34
74635;BME280;63140;56.306;43.984;2022-09-17T09:14:32;97883.97;;;16.84;60.46
74635;BME280;63140;56.306;43.984;2022-09-17T09:17:06;97897.00;;;16.77;61.12
74635;BME280;63140;56.306;43.984;2022-09-17T09:19:41;97893.13;;;16.78;60.79
74635;BME280;63140;56.306;43.984;2022-09-17T09:27:42;97910.38;;;16.62;60.59
74635;BME280;63140;56.306;43.984;2022-09-17T09:30:12;97925.19;;;16.57;59.80
74635;BME280;63140;56.306;43.984;2022-09-17T09:32:56;97923.88;;;16.53;58.89
74635;BME280;63140;56.306;43.984;2022-09-17T09:35:30;97933.59;;;16.11;58.87
74635;BME280;63140;56.306;43.984;2022-09-17T09:38:05;97932.91;;;16.02;59.23
74635;BME280;63140;56.306;43.984;2022-09-17T09:40:45;97931.75;;;15.93;59.36
74635;BME280;63140;56.306;43.984;2022-09-17T09:48:45;97954.84;;;16.15;59.13
74635;BME280;63140;56.306;43.984;2022-09-17T09:57:11;97950.75;;;16.43;57.88
74635;BME280;63140;56.306;43.984;2022-09-17T09:59:38;97949.72;;;17.24;57.05
74635;BME280;63140;56.306;43.984;2022-09-17T10:02:06;97948.94;;;18.76;52.85
74635;BME280;63140;56.306;43.984;2022-09-17T10:04:33;97940.84;;;20.31;48.91
74635;BME280;63140;56.306;43.984;2022-09-17T10:07:07;97941.41;;;18.59;50.17
74635;BME280;63140;56.306;43.984;2022-09-17T10:09:36;97944.53;;;19.73;49.15
74635;BME280;63140;56.306;43.984;2022-09-17T10:12:15;97949.94;;;22.90;42.94
74635;BME280;63140;56.306;43.984;2022-09-17T10:14:43;97945.53;;;26.03;39.30
74635;BME280;63140;56.306;43.984;2022-09-17T10:17:13;97944.94;;;28.14;35.64
74635;BME280;63140;56.306;43.984;2022-09-17T10:19:40;97955.47;;;28.61;33.15
74635;BME280;63140;56.306;43.984;2022-09-17T10:24:56;97955.25;;;30.37;31.19
74635;BME280;63140;56.306;43.984;2022-09-17T10:27:24;97971.28;;;26.15;35.81
74635;BME280;63140;56.306;43.984;2022-09-17T10:32:33;97969.22;;;24.90;37.71
74635;BME280;63140;56.306;43.984;2022-09-17T10:37:40;97978.94;;;28.05;34.07
74635;BME280;63140;56.306;43.984;2022-09-17T10:42:49;97972.31;;;25.45;37.13
74635;BME280;63140;56.306;43.984;2022-09-17T10:45:27;97981.19;;;22.91;41.01
74635;BME280;63140;56.306;43.984;2022-09-17T10:47:54;97970.72;;;23.67;40.60
74635;BME280;63140;56.306;43.984;2022-09-17T10:50:32;97986.88;;;26.62;36.34
74635;BME280;63140;56.306;43.984;2022-09-17T10:53:02;97971.88;;;28.76;34.92
74635;BME280;63140;56.306;43.984;2022-09-17T11:14:54;97985.88;;;24.81;35.89
74635;BME280;63140;56.306;43.984;2022-09-17T11:17:45;97985.47;;;22.34;38.97
74635;BME280;63140;56.306;43.984;2022-09-17T11:20:51;97996.44;;;21.10;40.58
74635;BME280;63140;56.306;43.984;2022-09-17T11:23:46;97981.47;;;20.92;43.15
74635;BME280;63140;56.306;43.984;2022-09-17T11:26:38;97987.03;;;21.90;40.06
74635;BME280;63140;56.306;43.984;2022-09-17T11:29:36;97999.94;;;23.25;38.04
74635;BME280;63140;56.306;43.984;2022-09-17T11:35:02;98008.38;;;26.39;34.75
74635;BME280;63140;56.306;43.984;2022-09-17T11:37:36;97996.38;;;27.03;33.99
74635;BME280;63140;56.306;43.984;2022-09-17T11:42:53;97995.56;;;26.60;34.97
74635;BME280;63140;56.306;43.984;2022-09-17T11:45:27;97991.22;;;27.91;34.02
74635;BME280;63140;56.306;43.984;2022-09-17T11:48:02;97999.88;;;26.56;34.32
74635;BME280;63140;56.306;43.984;2022-09-17T11:50:41;97997.63;;;26.33;36.00
74635;BME280;63140;56.306;43.984;2022-09-17T11:53:19;97996.34;;;25.55;36.44
74635;BME280;63140;56.306;43.984;2022-09-17T11:56:14;97995.66;;;24.71;36.90
74635;BME280;63140;56.306;43.984;2022-09-17T11:58:59;97999.44;;;24.05;37.02
74635;BME280;63140;56.306;43.984;2022-09-17T12:01:47;98009.50;;;23.26;38.61
74635;BME280;63140;56.306;43.984;2022-09-17T12:06:58;97998.19;;;23.27;37.53
74635;BME280;63140;56.306;43.984;2022-09-17T12:09:31;98008.88;;;24.61;36.05
74635;BME280;63140;56.306;43.984;2022-09-17T12:12:17;98003.56;;;23.57;37.00
74635;BME280;63140;56.306;43.984;2022-09-17T12:14:50;98000.78;;;23.08;39.17
74635;BME280;63140;56.306;43.984;2022-09-17T12:17:21;98013.41;;;23.91;38.13
74635;BME280;63140;56.306;43.984;2022-09-17T12:20:01;98009.06;;;22.28;40.76
74635;BME280;63140;56.306;43.984;2022-09-17T12:22:33;98009.44;;;21.90;41.61
74635;BME280;63140;56.306;43.984;2022-09-17T12:25:01;98022.91;;;20.95;42.87
74635;BME280;63140;56.306;43.984;2022-09-17T12:27:47;98028.22;;;20.07;44.66
74635;BME280;63140;56.306;43.984;2022-09-17T12:30:20;98037.41;;;19.84;45.65
74635;BME280;63140;56.306;43.984;2022-09-17T12:32:56;98040.44;;;19.65;46.24
74635;BME280;63140;56.306;43.984;2022-09-17T12:41:18;98034.28;;;23.66;39.62
74635;BME280;63140;56.306;43.984;2022-09-17T13:00:10;98064.50;;;17.50;50.85
74635;BME280;63140;56.306;43.984;2022-09-17T13:08:28;98079.41;;;17.36;52.30
74635;BME280;63140;56.306;43.984;2022-09-17T13:19:46;98073.13;;;17.83;51.27
74635;BME280;63140;56.306;43.984;2022-09-17T13:22:19;98087.72;;;17.82;51.76
74635;BME280;63140;56.306;43.984;2022-09-17T13:25:01;98079.06;;;19.04;50.34
74635;BME280;63140;56.306;43.984;2022-09-17T13:27:28;98082.28;;;20.95;46.43
74635;BME280;63140;56.306;43.984;2022-09-17T13:30:18;98082.06;;;22.39;43.06
74635;BME280;63140;56.306;43.984;2022-09-17T13:32:47;98087.63;;;22.63;41.73
74635;BME280;63140;56.306;43.984;2022-09-17T13:40:33;98101.06;;;23.33;41.18
74635;BME280;63140;56.306;43.984;2022-09-17T13:45:28;98099.81;;;21.89;42.67
74635;BME280;63140;56.306;43.984;2022-09-17T13:47:58;98100.84;;;21.70;43.05
74635;BME280;63140;56.306;43.984;2022-09-17T13:50:39;98109.56;;;21.19;42.84
74635;BME280;63140;56.306;43.984;2022-09-17T13:55:51;98123.84;;;20.60;45.12
74635;BME280;63140;56.306;43.984;2022-09-17T14:03:54;98126.53;;;21.26;43.38
74635;BME280;63140;56.306;43.984;2022-09-17T14:08:49;98135.19;;;19.64;46.39
74635;BME280;63140;56.306;43.984;2022-09-17T14:19:18;98143.19;;;18.15;49.63
74635;BME280;63140;56.306;43.984;2022-09-17T14:21:59;98140.31;;;17.74;50.65
74635;BME280;63140;56.306;43.984;2022-09-17T14:27:20;98136.59;;;17.27;51.92
74635;BME280;63140;56.306;43.984;2022-09-17T14:40:46;98153.94;;;16.69;53.45
74635;BME280;63140;56.306;43.984;2022-09-17T14:48:51;98151.31;;;16.60;53.49
74635;BME280;63140;56.306;43.984;2022-09-17T14:53:47;98146.81;;;16.66;53.86
74635;BME280;63140;56.306;43.984;2022-09-17T14:56:16;98146.63;;;16.69;53.97
74635;BME280;63140;56.306;43.984;2022-09-17T14:58:51;98143.78;;;16.73;54.41
74635;BME280;63140;56.306;43.984;2022-09-17T15:01:23;98145.28;;;16.74;54.68
74635;BME280;63140;56.306;43.984;2022-09-17T15:04:25;98157.50;;;16.75;54.89
74635;BME280;63140;56.306;43.984;2022-09-17T15:06:52;98168.25;;;16.75;54.95
74635;BME280;63140;56.306;43.984;2022-09-17T15:09:24;98163.75;;;16.72;54.88
74635;BME280;63140;56.306;43.984;2022-09-17T15:12:00;98170.03;;;16.69;54.69
74635;BME280;63140;56.306;43.984;2022-09-17T15:14:31;98173.34;;;16.64;54.75
74635;BME280;63140;56.306;43.984;2022-09-17T15:16:59;98174.25;;;16.61;54.80
74635;BME280;63140;56.306;43.984;2022-09-17T15:19:32;98161.19;;;16.54;54.98
74635;BME280;63140;56.306;43.984;2022-09-17T15:25:06;98161.50;;;16.46;54.99
74635;BME280;63140;56.306;43.984;2022-09-17T15:27:47;98163.44;;;16.46;55.34
74635;BME280;63140;56.306;43.984;2022-09-17T15:30:21;98169.13;;;16.39;55.30
74635;BME280;63140;56.306;43.984;2022-09-17T15:32:49;98179.41;;;16.31;55.30
74635;BME280;63140;56.306;43.984;2022-09-17T15:35:22;98171.44;;;16.22;55.58
74635;BME280;63140;56.306;43.984;2022-09-17T15:37:54;98175.03;;;16.10;55.72
74635;BME280;63140;56.306;43.984;2022-09-17T15:40:33;98175.34;;;16.03;56.14
74635;BME280;63140;56.306;43.984;2022-09-17T15:43:27;98173.00;;;15.86;56.79
74635;BME280;63140;56.306;43.984;2022-09-17T15:45:55;98171.25;;;15.74;56.82
74635;BME280;63140;56.306;43.984;2022-09-17T15:48:33;98174.41;;;15.72;56.69
74635;BME280;63140;56.306;43.984;2022-09-17T15:51:01;98170.94;;;15.72;57.03
74635;BME280;63140;56.306;43.984;2022-09-17T15:53:28;98175.28;;;15.69;57.26
74635;BME280;63140;56.306;43.984;2022-09-17T15:58:35;98181.38;;;15.51;57.06
74635;BME280;63140;56.306;43.984;2022-09-17T16:08:48;98199.03;;;15.12;57.75
74635;BME280;63140;56.306;43.984;2022-09-17T16:11:15;98206.03;;;15.10;57.78
74635;BME280;63140;56.306;43.984;2022-09-17T16:13:41;98209.44;;;15.10;57.76
74635;BME280;63140;56.306;43.984;2022-09-17T16:16:19;98210.59;;;15.09;57.77
74635;BME280;63140;56.306;43.984;2022-09-17T16:18:47;98212.81;;;15.01;58.03
74635;BME280;63140;56.306;43.984;2022-09-17T16:21:14;98214.88;;;14.88;58.27
74635;BME280;63140;56.306;43.984;2022-09-17T16:23:41;98218.16;;;14.92;58.12
74635;BME280;63140;56.306;43.984;2022-09-17T16:26:11;98211.31;;;14.91;58.59
74635;BME280;63140;56.306;43.984;2022-09-17T16:28:39;98218.44;;;14.85;58.60
74635;BME280;63140;56.306;43.984;2022-09-17T16:31:05;98224.06;;;14.78;58.83
74635;BME280;63140;56.306;43.984;2022-09-17T16:33:31;98221.09;;;14.76;58.99
74635;BME280;63140;56.306;43.984;2022-09-17T16:35:58;98229.69;;;14.71;58.90
74635;BME280;63140;56.306;43.984;2022-09-17T16:38:24;98233.22;;;14.68;59.06
74635;BME280;63140;56.306;43.984;2022-09-17T16:40:50;98231.13;;;14.63;59.17
74635;BME280;63140;56.306;43.984;2022-09-17T16:43:17;98224.13;;;14.56;59.43